Time;durP1;ratioP1;P1;durP2;ratioP2;P2;SDS_P1;SDS_P2;PMS_P1;PMS_P2;Temp;Humidity;BMP_temperature;BMP_pressure;BME280_temperature;BME280_humidity;BME280_pressure;Samples;Min_cycle;Max_cycle;Signal;HPM_P1;HPM_P2
2023/03/30 00:02:11;;;;;;;32.85;24.00;;;10.20;99.90;;;;;;4968921;28;20489;-47
2023/03/30 00:04:41;;;;;;;34.83;23.83;;;9.80;99.90;;;;;;4968607;28;20175;-47
2023/03/30 00:07:07;;;;;;;33.67;22.77;;;9.80;99.90;;;;;;4968242;28;20457;-47
2023/03/30 00:09:33;;;;;;;30.92;22.42;;;9.80;99.90;;;;;;4968055;28;20050;-49
2023/03/30 00:12:02;;;;;;;34.80;23.90;;;9.80;99.90;;;;;;4968088;28;20460;-47
2023/03/30 00:14:28;;;;;;;32.08;23.60;;;9.90;99.90;;;;;;4967887;28;20247;-48
2023/03/30 00:16:55;;;;;;;33.08;22.70;;;10.00;99.90;;;;;;4967814;28;20105;-47
2023/03/30 00:19:21;;;;;;;28.65;21.13;;;9.90;99.90;;;;;;4967768;28;20058;-47
2023/03/30 00:21:48;;;;;;;28.08;21.63;;;9.80;99.90;;;;;;4967510;28;20064;-46
2023/03/30 00:24:14;;;;;;;26.83;20.13;;;10.00;99.90;;;;;;4967605;28;20047;-47
2023/03/30 00:26:40;;;;;;;28.08;18.10;;;9.90;99.90;;;;;;4967240;28;20468;-48
2023/03/30 00:29:06;;;;;;;21.92;17.70;;;10.10;99.90;;;;;;4967390;28;20074;-47
2023/03/30 00:31:31;;;;;;;23.67;16.85;;;10.00;99.90;;;;;;4967575;28;20496;-47
2023/03/30 00:33:57;;;;;;;22.35;16.23;;;10.00;99.90;;;;;;4967784;28;20047;-47
2023/03/30 00:36:23;;;;;;;21.17;15.80;;;10.00;99.90;;;;;;4970867;28;20050;-47
2023/03/30 00:38:49;;;;;;;21.90;15.85;;;10.40;99.90;;;;;;4971209;28;20050;-46
2023/03/30 00:41:15;;;;;;;19.13;14.48;;;10.00;99.90;;;;;;4971202;28;20049;-47
2023/03/30 00:44:02;;;;;;;19.00;14.32;;;10.10;99.90;;;;;;4971293;28;20051;-48
2023/03/30 00:46:29;;;;;;;18.63;14.43;;;10.10;99.90;;;;;;4970672;28;20398;-47
2023/03/30 00:49:08;;;;;;;18.40;14.38;;;10.40;99.90;;;;;;4971666;28;20042;-48
2023/03/30 00:51:39;;;;;;;20.42;14.18;;;10.30;99.90;;;;;;4971389;28;20057;-46
2023/03/30 00:54:17;;;;;;;21.90;14.00;;;10.10;99.90;;;;;;4971672;28;20078;-47
2023/03/30 00:56:42;;;;;;;20.30;13.10;;;10.10;99.90;;;;;;4971330;28;20051;-47
2023/03/30 00:59:09;;;;;;;18.70;14.60;;;10.10;99.90;;;;;;4971559;28;20148;-46
2023/03/30 01:01:37;;;;;;;20.27;12.70;;;10.00;99.90;;;;;;4971301;28;20433;-48
2023/03/30 01:04:04;;;;;;;18.38;12.38;;;10.40;99.90;;;;;;4971323;28;20058;-47
2023/03/30 01:06:31;;;;;;;16.92;12.55;;;10.00;99.90;;;;;;4970737;28;20055;-46
2023/03/30 01:08:57;;;;;;;14.93;11.30;;;9.90;99.90;;;;;;4970991;28;20047;-47
2023/03/30 01:11:23;;;;;;;17.90;11.48;;;9.80;99.90;;;;;;4971112;28;20046;-45
2023/03/30 01:13:57;;;;;;;17.02;11.30;;;9.90;99.90;;;;;;4971044;28;20078;-48
2023/03/30 01:16:35;;;;;;;20.27;11.13;;;9.80;99.90;;;;;;4971064;28;20728;-47
2023/03/30 01:19:09;;;;;;;14.75;9.77;;;9.90;99.90;;;;;;4971022;28;20085;-46
2023/03/30 01:22:03;;;;;;;17.02;11.35;;;9.90;99.90;;;;;;4970946;28;20366;-46
2023/03/30 01:24:52;;;;;;;17.58;10.77;;;9.90;99.90;;;;;;4970984;28;20134;-46
2023/03/30 01:27:57;;;;;;;9.95;7.35;;;10.30;99.90;;;;;;4970832;28;20063;-47
2023/03/30 01:30:25;;;;;;;11.45;7.25;;;9.90;99.90;;;;;;4970759;28;20054;-49
2023/03/30 01:33:17;;;;;;;11.63;7.72;;;9.90;99.90;;;;;;4970448;28;20404;-46
2023/03/30 01:35:43;;;;;;;12.85;7.50;;;10.00;99.90;;;;;;4970326;28;20101;-46
2023/03/30 01:38:20;;;;;;;15.68;7.03;;;10.00;99.90;;;;;;4970779;28;20058;-46
2023/03/30 01:41:06;;;;;;;10.25;6.78;;;10.00;99.90;;;;;;4970790;28;20054;-47
2023/03/30 01:43:35;;;;;;;9.93;6.63;;;10.00;99.90;;;;;;4970820;28;20086;-51
2023/03/30 01:46:17;;;;;;;9.98;5.72;;;10.00;99.90;;;;;;4969675;28;20062;-49
2023/03/30 01:49:09;;;;;;;8.73;6.33;;;10.10;99.90;;;;;;4970223;28;20078;-47
2023/03/30 01:51:43;;;;;;;14.30;6.07;;;10.10;99.90;;;;;;4984821;28;20401;-47
2023/03/30 01:54:17;;;;;;;10.10;6.60;;;10.20;99.90;;;;;;4970312;28;20043;-47
2023/03/30 01:56:47;;;;;;;13.82;6.00;;;10.20;99.90;;;;;;4969382;28;20054;-46
2023/03/30 01:59:26;;;;;;;11.82;5.45;;;10.20;99.90;;;;;;4970231;28;20043;-47
2023/03/30 02:01:59;;;;;;;9.43;6.07;;;10.20;99.90;;;;;;4970445;28;20038;-46
2023/03/30 02:04:28;;;;;;;9.32;5.85;;;10.20;99.90;;;;;;4970502;28;20041;-47
2023/03/30 02:07:07;;;;;;;9.95;5.78;;;10.30;99.90;;;;;;4970161;28;20121;-46
2023/03/30 02:09:36;;;;;;;9.63;4.90;;;10.30;99.90;;;;;;4970438;28;20066;-49
2023/03/30 02:12:04;;;;;;;9.98;4.47;;;10.60;99.90;;;;;;4970145;28;20069;-49
2023/03/30 02:14:32;;;;;;;8.20;5.63;;;10.30;99.90;;;;;;4970317;28;20119;-47
2023/03/30 02:17:21;;;;;;;8.50;5.32;;;10.40;99.90;;;;;;4970031;28;20047;-50
2023/03/30 02:19:47;;;;;;;10.45;4.75;;;10.60;99.90;;;;;;4969851;28;20484;-46
2023/03/30 02:22:18;;;;;;;11.30;4.90;;;10.50;99.90;;;;;;4969422;28;20051;-47
2023/03/30 02:24:48;;;;;;;9.50;4.63;;;10.40;99.90;;;;;;4969506;28;20058;-49
2023/03/30 02:27:14;;;;;;;8.60;4.90;;;10.60;99.90;;;;;;4969342;28;20495;-47
2023/03/30 02:29:42;;;;;;;14.20;5.50;;;10.90;99.90;;;;;;4969452;28;20046;-46
2023/03/30 02:32:18;;;;;;;7.70;4.50;;;10.90;99.90;;;;;;4969110;28;20039;-48
2023/03/30 02:35:22;;;;;;;9.15;5.25;;;10.40;99.90;;;;;;4969285;28;20612;-47
2023/03/30 02:38:21;;;;;;;8.88;5.18;;;10.40;99.90;;;;;;4969300;28;20055;-48
2023/03/30 02:41:27;;;;;;;9.88;4.95;;;10.70;99.90;;;;;;4969572;28;20050;-46
2023/03/30 02:43:55;;;;;;;8.02;4.47;;;10.30;99.90;;;;;;4969188;28;20046;-47
2023/03/30 02:46:44;;;;;;;11.68;5.00;;;10.50;99.90;;;;;;4968532;28;20142;-48
2023/03/30 02:49:19;;;;;;;8.75;4.80;;;10.30;99.90;;;;;;4968601;28;20058;-47
2023/03/30 02:52:00;;;;;;;8.63;4.68;;;10.40;99.90;;;;;;4968814;28;20186;-48
2023/03/30 02:54:44;;;;;;;10.35;5.40;;;10.40;99.90;;;;;;4969683;28;20042;-47
2023/03/30 02:57:18;;;;;;;7.85;4.70;;;10.50;99.90;;;;;;4969246;28;20402;-47
2023/03/30 02:59:44;;;;;;;8.38;4.57;;;10.50;99.90;;;;;;4969247;28;20054;-46
2023/03/30 03:02:23;;;;;;;6.93;4.63;;;10.50;99.90;;;;;;4969090;28;20382;-46
2023/03/30 03:04:52;;;;;;;10.95;4.47;;;10.40;99.90;;;;;;4969394;28;20065;-47
2023/03/30 03:07:19;;;;;;;7.00;3.92;;;10.60;99.90;;;;;;4966986;28;20486;-48
2023/03/30 03:09:45;;;;;;;8.00;4.25;;;10.30;99.90;;;;;;4968676;28;20038;-47
2023/03/30 03:12:11;;;;;;;7.93;4.00;;;10.40;99.90;;;;;;4968430;28;20081;-47
2023/03/30 03:14:38;;;;;;;7.32;3.88;;;10.30;99.90;;;;;;4968912;28;20043;-46
2023/03/30 03:17:04;;;;;;;8.52;3.85;;;9.90;99.90;;;;;;4968916;28;20078;-46
2023/03/30 03:19:30;;;;;;;8.35;3.58;;;10.10;99.90;;;;;;4968874;28;20117;-46
2023/03/30 03:21:56;;;;;;;7.25;4.47;;;9.90;99.90;;;;;;4968800;28;20066;-46
2023/03/30 03:24:22;;;;;;;8.85;4.30;;;9.90;99.90;;;;;;4969021;28;20386;-46
2023/03/30 03:26:48;;;;;;;7.43;3.38;;;9.80;99.90;;;;;;4968832;28;20055;-47
2023/03/30 03:29:14;;;;;;;7.75;3.50;;;9.90;99.90;;;;;;4968945;28;20090;-46
2023/03/30 03:31:40;;;;;;;11.85;3.90;;;9.90;99.90;;;;;;4968510;28;20039;-47
2023/03/30 03:34:06;;;;;;;8.13;4.50;;;9.90;99.90;;;;;;4968077;28;20050;-47
2023/03/30 03:36:31;;;;;;;6.88;3.40;;;9.90;99.90;;;;;;4968481;28;20644;-48
2023/03/30 03:38:57;;;;;;;7.30;4.20;;;9.90;99.90;;;;;;4968353;28;20051;-48
2023/03/30 03:41:23;;;;;;;11.30;3.42;;;9.80;99.90;;;;;;4968854;28;20058;-47
2023/03/30 03:43:48;;;;;;;8.95;3.97;;;9.90;99.90;;;;;;4968604;28;20047;-45
2023/03/30 03:46:15;;;;;;;7.88;3.67;;;9.90;99.90;;;;;;4967802;28;20061;-46
2023/03/30 03:48:40;;;;;;;5.65;3.45;;;9.90;99.90;;;;;;4968217;28;20607;-46
2023/03/30 03:51:06;;;;;;;7.25;3.38;;;10.10;99.90;;;;;;4968209;28;20050;-47
2023/03/30 03:53:32;;;;;;;8.70;3.45;;;9.90;99.90;;;;;;4968202;28;20066;-47
2023/03/30 03:55:58;;;;;;;6.57;3.35;;;10.00;99.90;;;;;;4968046;28;20051;-47
2023/03/30 03:58:24;;;;;;;7.63;3.15;;;9.90;99.90;;;;;;4967708;28;20441;-46
2023/03/30 04:00:50;;;;;;;9.75;3.60;;;10.00;99.90;;;;;;4968030;28;20174;-47
2023/03/30 04:03:16;;;;;;;8.43;3.00;;;10.00;99.90;;;;;;4968309;28;20130;-48
2023/03/30 04:05:42;;;;;;;7.35;3.40;;;10.20;99.90;;;;;;4968226;28;20042;-46
2023/03/30 04:08:09;;;;;;;8.50;3.10;;;10.10;99.90;;;;;;4967984;28;20432;-46
2023/03/30 04:10:37;;;;;;;7.05;3.20;;;10.40;99.90;;;;;;4967782;28;20053;-47
2023/03/30 04:13:03;;;;;;;7.00;2.60;;;10.20;99.90;;;;;;4967917;28;20039;-46
2023/03/30 04:15:28;;;;;;;9.40;2.58;;;10.30;99.90;;;;;;4967845;28;20037;-47
2023/03/30 04:17:57;;;;;;;10.23;2.92;;;10.30;99.90;;;;;;4968058;28;20050;-48
2023/03/30 04:20:24;;;;;;;7.15;3.08;;;10.30;99.90;;;;;;4967960;28;20046;-47
2023/03/30 04:22:52;;;;;;;8.80;2.88;;;10.40;99.90;;;;;;4967861;28;20498;-46
2023/03/30 04:25:20;;;;;;;6.88;2.92;;;10.90;99.90;;;;;;4967860;28;20370;-47
2023/03/30 04:27:50;;;;;;;8.63;2.53;;;10.80;99.90;;;;;;4968020;28;20058;-47
2023/03/30 04:30:17;;;;;;;10.05;2.50;;;10.50;99.90;;;;;;4967549;28;20050;-48
2023/03/30 04:32:45;;;;;;;4.30;1.83;;;10.60;99.90;;;;;;4967990;28;20397;-49
2023/03/30 04:35:13;;;;;;;6.70;2.60;;;10.50;99.90;;;;;;4967734;28;20105;-48
2023/03/30 04:37:40;;;;;;;6.82;2.22;;;10.80;99.90;;;;;;4967802;28;20679;-47
2023/03/30 04:40:08;;;;;;;8.65;2.50;;;11.10;99.90;;;;;;4967613;28;20054;-46
2023/03/30 04:42:36;;;;;;;6.53;1.85;;;10.50;99.90;;;;;;4967467;28;20199;-46
2023/03/30 04:45:07;;;;;;;6.82;2.10;;;10.50;99.90;;;;;;4967213;28;20074;-48
2023/03/30 04:47:33;;;;;;;7.95;1.80;;;10.60;99.90;;;;;;4967271;28;20078;-47
2023/03/30 04:50:00;;;;;;;6.45;1.90;;;10.60;99.90;;;;;;4967134;28;20034;-46
2023/03/30 04:52:26;;;;;;;6.07;1.77;;;10.60;99.90;;;;;;4967106;28;20050;-47
2023/03/30 04:54:52;;;;;;;7.68;1.85;;;10.60;99.90;;;;;;4966895;28;20097;-48
2023/03/30 04:57:18;;;;;;;5.70;1.80;;;10.70;99.90;;;;;;4966941;28;20057;-47
2023/03/30 04:59:44;;;;;;;4.13;1.52;;;10.90;99.90;;;;;;4967079;28;20457;-47
2023/03/30 05:02:11;;;;;;;9.55;2.33;;;10.60;99.90;;;;;;4967536;28;20043;-46
2023/03/30 05:04:37;;;;;;;10.38;2.67;;;11.10;99.90;;;;;;4967457;28;20137;-48
2023/03/30 05:07:05;;;;;;;6.53;2.30;;;10.80;99.90;;;;;;4967448;28;20057;-46
2023/03/30 05:09:31;;;;;;;5.43;2.15;;;11.20;99.90;;;;;;4967228;28;20094;-47
2023/03/30 05:11:57;;;;;;;10.00;3.00;;;10.90;99.90;;;;;;4967963;28;20042;-48
2023/03/30 05:14:22;;;;;;;8.82;2.90;;;11.10;99.90;;;;;;4967659;28;20544;-47
2023/03/30 05:16:48;;;;;;;8.15;2.60;;;10.70;99.90;;;;;;4968069;28;20054;-48
2023/03/30 05:19:14;;;;;;;9.13;2.78;;;10.60;99.90;;;;;;4967329;28;20089;-48
2023/03/30 05:21:40;;;;;;;8.40;3.17;;;10.60;99.90;;;;;;4968475;28;20101;-47
2023/03/30 05:24:06;;;;;;;8.18;3.42;;;10.50;99.90;;;;;;4971116;28;20043;-48
2023/03/30 05:26:32;;;;;;;7.97;2.97;;;10.50;99.90;;;;;;4970939;28;20595;-48
2023/03/30 05:28:58;;;;;;;10.80;3.55;;;10.40;99.90;;;;;;4971234;28;20043;-47
2023/03/30 05:31:24;;;;;;;8.77;3.22;;;10.70;99.90;;;;;;4971109;28;20477;-47
2023/03/30 05:33:51;;;;;;;8.30;3.72;;;10.40;99.90;;;;;;4970892;28;20051;-46
2023/03/30 05:36:17;;;;;;;9.73;3.33;;;10.40;99.90;;;;;;4970587;28;20512;-48
2023/03/30 05:38:43;;;;;;;9.88;4.20;;;10.60;99.90;;;;;;4970562;28;20118;-47
2023/03/30 05:41:09;;;;;;;8.65;4.00;;;10.40;99.90;;;;;;4970476;28;20141;-46
2023/03/30 05:43:35;;;;;;;8.85;4.07;;;10.50;99.90;;;;;;4970320;28;20109;-50
2023/03/30 05:46:02;;;;;;;10.45;4.25;;;11.00;99.90;;;;;;4969574;28;20490;-47
2023/03/30 05:48:28;;;;;;;9.48;3.80;;;10.40;99.90;;;;;;4970229;28;20101;-46
2023/03/30 05:50:54;;;;;;;8.43;4.38;;;10.40;99.90;;;;;;4969114;28;20057;-49
2023/03/30 05:53:20;;;;;;;10.38;3.45;;;10.40;99.90;;;;;;4970333;28;20050;-48
2023/03/30 05:55:47;;;;;;;9.25;3.72;;;10.60;99.90;;;;;;4970415;28;20101;-48
2023/03/30 05:58:13;;;;;;;12.98;5.55;;;10.40;99.90;;;;;;4970431;28;20126;-47
2023/03/30 06:00:40;;;;;;;9.35;4.07;;;10.40;99.90;;;;;;4969980;28;20050;-49
2023/03/30 06:03:07;;;;;;;7.18;3.60;;;10.50;99.90;;;;;;4970238;28;20046;-45
2023/03/30 06:05:38;;;;;;;13.40;3.75;;;10.40;99.90;;;;;;4969810;28;20061;-48
2023/03/30 06:08:06;;;;;;;9.15;3.92;;;10.40;99.90;;;;;;4969923;28;20128;-47
2023/03/30 06:10:33;;;;;;;9.80;3.60;;;10.50;99.90;;;;;;4969218;28;20149;-47
2023/03/30 06:12:59;;;;;;;7.15;3.45;;;10.50;99.90;;;;;;4969793;28;20126;-47
2023/03/30 06:15:25;;;;;;;8.93;3.03;;;10.60;99.90;;;;;;4969924;28;20051;-48
2023/03/30 06:17:51;;;;;;;8.48;2.75;;;10.90;99.90;;;;;;4970161;28;20057;-47
2023/03/30 06:20:20;;;;;;;5.80;2.75;;;10.80;99.90;;;;;;4969591;28;20619;-49
2023/03/30 06:22:46;;;;;;;8.20;2.50;;;10.70;99.90;;;;;;4969914;28;20038;-48
2023/03/30 06:25:12;;;;;;;8.13;2.60;;;10.80;99.90;;;;;;4970110;28;20054;-50
2023/03/30 06:27:38;;;;;;;6.68;3.05;;;10.80;99.90;;;;;;4969629;28;20190;-48
2023/03/30 06:30:05;;;;;;;5.55;2.20;;;11.40;99.90;;;;;;4969365;28;20141;-47
2023/03/30 06:32:30;;;;;;;6.57;2.15;;;10.90;99.90;;;;;;4969516;28;20043;-47
2023/03/30 06:34:56;;;;;;;8.35;2.78;;;11.00;99.90;;;;;;4969746;28;20635;-47
2023/03/30 06:37:22;;;;;;;10.27;2.55;;;10.90;99.90;;;;;;4969600;28;20047;-46
2023/03/30 06:39:48;;;;;;;8.27;2.88;;;11.00;99.90;;;;;;4969665;28;20035;-48
2023/03/30 06:42:13;;;;;;;10.10;3.15;;;10.90;99.90;;;;;;4969437;28;20626;-47
2023/03/30 06:44:39;;;;;;;8.05;3.17;;;10.80;99.90;;;;;;4968464;28;20039;-50
2023/03/30 06:47:06;;;;;;;13.93;3.50;;;10.80;99.90;;;;;;4968751;28;20097;-47
2023/03/30 06:49:32;;;;;;;8.60;3.35;;;10.70;99.90;;;;;;4968796;28;20042;-47
2023/03/30 06:51:58;;;;;;;5.65;3.38;;;10.60;99.90;;;;;;4968713;28;20101;-47
2023/03/30 06:54:23;;;;;;;11.52;4.05;;;10.60;99.90;;;;;;4967572;28;20035;-50
2023/03/30 06:56:49;;;;;;;9.38;3.88;;;10.60;99.90;;;;;;4968486;28;20042;-47
2023/03/30 06:59:15;;;;;;;7.15;4.40;;;10.80;99.90;;;;;;4968524;28;20121;-45
2023/03/30 07:01:42;;;;;;;10.05;4.78;;;11.50;99.90;;;;;;4969019;28;20117;-46
2023/03/30 07:04:08;;;;;;;16.08;4.50;;;11.10;99.90;;;;;;4969103;28;20762;-46
2023/03/30 07:06:34;;;;;;;13.57;5.13;;;11.20;99.90;;;;;;4968701;28;20788;-47
2023/03/30 07:09:00;;;;;;;12.18;5.88;;;11.50;99.90;;;;;;4969085;28;20085;-45
2023/03/30 07:11:26;;;;;;;9.38;6.18;;;11.10;99.90;;;;;;4969300;28;20433;-47
2023/03/30 07:13:55;;;;;;;8.80;4.57;;;11.00;99.90;;;;;;4968711;28;20099;-45
2023/03/30 07:16:21;;;;;;;8.00;4.15;;;10.90;99.90;;;;;;4969072;28;20046;-45
2023/03/30 07:18:46;;;;;;;12.90;4.47;;;10.80;99.90;;;;;;4968711;28;20098;-46
2023/03/30 07:21:12;;;;;;;12.20;4.13;;;11.00;99.90;;;;;;4968956;28;20042;-47
2023/03/30 07:23:39;;;;;;;9.98;3.47;;;11.10;99.90;;;;;;4969195;28;20038;-47
2023/03/30 07:26:05;;;;;;;10.70;3.35;;;11.00;99.90;;;;;;4969566;28;20047;-47
2023/03/30 07:28:30;;;;;;;12.07;3.05;;;11.10;99.90;;;;;;4969163;28;20058;-47
2023/03/30 07:31:07;;;;;;;10.50;2.60;;;11.00;99.90;;;;;;4969013;28;20042;-46
2023/03/30 07:33:33;;;;;;;11.52;3.10;;;11.00;99.90;;;;;;4969164;28;20057;-47
2023/03/30 07:35:59;;;;;;;11.27;2.40;;;11.10;99.90;;;;;;4968710;28;20109;-46
2023/03/30 07:38:24;;;;;;;9.98;2.35;;;11.20;99.90;;;;;;4968728;28;20683;-46
2023/03/30 07:40:50;;;;;;;13.10;2.40;;;11.50;99.90;;;;;;4968601;28;20054;-48
2023/03/30 07:43:16;;;;;;;9.52;1.65;;;11.30;99.90;;;;;;4968505;28;20043;-46
2023/03/30 07:45:41;;;;;;;11.73;2.83;;;11.30;99.90;;;;;;4966797;28;20065;-46
2023/03/30 07:48:07;;;;;;;8.35;1.77;;;11.40;99.90;;;;;;4968163;28;20138;-49
2023/03/30 07:50:33;;;;;;;9.98;2.03;;;11.50;99.90;;;;;;4967946;28;20046;-48
2023/03/30 07:52:59;;;;;;;16.45;2.15;;;11.60;99.90;;;;;;4968147;28;20432;-46
2023/03/30 07:55:27;;;;;;;18.45;2.45;;;11.60;99.90;;;;;;4968094;28;20141;-47
2023/03/30 07:57:54;;;;;;;13.00;1.67;;;11.60;99.90;;;;;;4967383;28;20374;-46
2023/03/30 08:00:20;;;;;;;15.90;3.05;;;11.70;99.90;;;;;;4967837;28;20043;-46
2023/03/30 08:02:46;;;;;;;13.88;1.88;;;11.70;99.90;;;;;;4967410;28;20117;-46
2023/03/30 08:05:12;;;;;;;16.42;2.67;;;12.10;99.90;;;;;;4967802;28;20043;-47
2023/03/30 08:07:38;;;;;;;10.93;2.25;;;11.70;99.90;;;;;;4967547;28;20106;-48
2023/03/30 08:10:04;;;;;;;11.70;2.65;;;12.10;99.90;;;;;;4967997;28;20039;-47
2023/03/30 08:12:30;;;;;;;9.07;1.83;;;11.50;99.90;;;;;;4967730;28;20047;-48
2023/03/30 08:14:55;;;;;;;16.90;2.97;;;11.60;99.90;;;;;;4967460;28;20405;-46
2023/03/30 08:17:21;;;;;;;15.52;1.65;;;11.40;99.90;;;;;;4967803;28;20047;-48
2023/03/30 08:19:47;;;;;;;14.60;1.83;;;11.40;99.90;;;;;;4967788;28;20129;-48
2023/03/30 08:22:13;;;;;;;15.80;2.40;;;11.50;99.90;;;;;;4968022;28;20050;-46
2023/03/30 08:24:38;;;;;;;13.80;1.83;;;11.90;99.90;;;;;;4967737;28;20047;-46
2023/03/30 08:27:04;;;;;;;18.73;2.45;;;11.50;99.90;;;;;;4968039;28;20394;-47
2023/03/30 08:29:30;;;;;;;13.25;2.50;;;11.50;99.90;;;;;;4967356;28;20385;-46
2023/03/30 08:31:56;;;;;;;13.23;2.05;;;11.40;99.90;;;;;;4967010;28;20049;-47
2023/03/30 08:34:22;;;;;;;15.93;1.92;;;11.50;99.90;;;;;;4968121;28;20112;-47
2023/03/30 08:36:48;;;;;;;19.48;2.83;;;11.90;99.90;;;;;;4968010;28;20493;-46
2023/03/30 08:39:14;;;;;;;8.43;1.60;;;11.70;99.90;;;;;;4968439;28;20535;-47
2023/03/30 08:41:48;;;;;;;14.35;2.05;;;11.70;99.90;;;;;;4968255;28;20078;-48
2023/03/30 08:44:25;;;;;;;12.40;2.13;;;11.60;99.90;;;;;;4968226;28;20042;-47
2023/03/30 08:46:52;;;;;;;19.55;3.00;;;11.60;99.90;;;;;;4967808;28;20404;-50
2023/03/30 08:49:19;;;;;;;13.45;2.33;;;11.50;99.90;;;;;;4968374;28;20078;-47
2023/03/30 08:51:49;;;;;;;14.75;2.30;;;11.50;99.90;;;;;;4967766;28;20491;-48
2023/03/30 08:54:20;;;;;;;16.48;2.25;;;11.50;99.90;;;;;;4967478;28;20042;-47
2023/03/30 08:57:05;;;;;;;10.00;1.33;;;11.60;99.90;;;;;;4952748;28;20074;-47
2023/03/30 08:59:43;;;;;;;12.98;2.65;;;11.70;99.90;;;;;;4967565;28;20109;-49
2023/03/30 09:02:20;;;;;;;12.68;2.83;;;11.70;99.90;;;;;;4967834;28;20163;-47
2023/03/30 09:05:01;;;;;;;12.05;1.80;;;11.60;99.90;;;;;;4966486;28;20720;-48
2023/03/30 09:07:28;;;;;;;12.05;1.35;;;11.50;99.90;;;;;;4967476;28;20051;-48
2023/03/30 09:09:56;;;;;;;16.05;2.22;;;11.50;99.90;;;;;;4967251;28;20043;-47
2023/03/30 09:12:45;;;;;;;13.65;2.10;;;11.60;99.90;;;;;;4967286;28;20043;-48
2023/03/30 09:15:21;;;;;;;10.43;1.73;;;11.70;99.90;;;;;;4967644;28;20512;-47
2023/03/30 09:17:54;;;;;;;19.15;3.75;;;11.80;99.90;;;;;;4965411;28;20059;-49
2023/03/30 09:20:23;;;;;;;17.38;3.20;;;12.00;99.90;;;;;;4967353;28;20208;-46
2023/03/30 09:22:50;;;;;;;17.70;2.08;;;12.10;99.90;;;;;;4967086;28;20085;-47
2023/03/30 09:25:39;;;;;;;16.77;2.92;;;12.50;99.90;;;;;;4968223;28;20054;-52
2023/03/30 09:28:30;;;;;;;14.13;2.10;;;12.30;99.90;;;;;;4967457;28;20128;-53
2023/03/30 09:31:16;;;;;;;9.32;1.17;;;14.60;99.90;;;;;;4967488;28;20066;-52
2023/03/30 09:33:55;;;;;;;15.57;2.00;;;12.70;99.90;;;;;;4966968;28;20065;-47
2023/03/30 09:36:52;;;;;;;18.15;3.50;;;13.00;99.90;;;;;;4967192;28;20038;-49
2023/03/30 09:39:20;;;;;;;14.07;1.90;;;13.60;99.90;;;;;;4946362;28;20051;-53
2023/03/30 09:42:04;;;;;;;9.63;1.02;;;14.40;99.90;;;;;;4960199;28;20062;-55
2023/03/30 09:44:36;;;;;;;13.95;2.05;;;15.40;99.90;;;;;;4962935;28;20069;-52
2023/03/30 09:47:22;;;;;;;11.15;1.10;;;15.00;99.90;;;;;;4963230;28;20073;-51
2023/03/30 09:49:53;;;;;;;14.52;1.65;;;14.70;99.90;;;;;;4965193;28;20047;-51
2023/03/30 09:52:22;;;;;;;7.57;0.80;;;14.30;99.90;;;;;;4964441;28;20565;-48
2023/03/30 09:54:48;;;;;;;15.77;2.35;;;14.20;99.90;;;;;;4964227;28;20046;-51
2023/03/30 09:57:43;;;;;;;8.07;2.13;;;14.10;99.90;;;;;;4953971;28;20055;-49
2023/03/30 10:00:32;;;;;;;9.43;1.67;;;14.00;99.90;;;;;;4962293;28;20066;-50
2023/03/30 10:03:04;;;;;;;10.65;1.63;;;14.10;99.90;;;;;;4963383;28;20054;-52
2023/03/30 10:05:32;;;;;;;11.45;1.35;;;14.00;99.90;;;;;;4962395;28;20474;-54
2023/03/30 10:08:02;;;;;;;14.05;1.63;;;13.80;99.90;;;;;;4962042;28;20057;-48
2023/03/30 10:10:34;;;;;;;11.70;1.95;;;13.60;99.90;;;;;;4965014;28;20061;-50
2023/03/30 10:13:06;;;;;;;15.55;2.42;;;13.20;99.90;;;;;;4964226;28;20047;-50
2023/03/30 10:15:37;;;;;;;13.77;2.17;;;13.00;99.90;;;;;;4959699;28;20133;-51
2023/03/30 10:18:16;;;;;;;12.02;1.95;;;12.80;99.90;;;;;;4962541;28;20519;-48
2023/03/30 10:20:45;;;;;;;13.35;2.08;;;12.60;99.90;;;;;;4960023;28;20157;-53
2023/03/30 10:23:17;;;;;;;12.85;1.75;;;12.40;99.90;;;;;;4975184;28;20089;-49
2023/03/30 10:25:45;;;;;;;;;;;12.30;99.90;;;;;;4977241;28;20055;-50
2023/03/30 10:28:28;;;;;;;8.85;1.25;;;12.40;99.90;;;;;;4962169;28;19926;-54
2023/03/30 10:30:58;;;;;;;12.10;2.15;;;12.60;99.90;;;;;;4980273;28;20097;-53
2023/03/30 10:33:26;;;;;;;13.07;1.45;;;12.80;99.90;;;;;;4971559;28;20043;-55
2023/03/30 10:35:55;;;;;;;10.75;1.00;;;12.90;99.90;;;;;;4970460;28;20042;-56
2023/03/30 10:38:22;;;;;;;10.40;1.52;;;13.00;99.90;;;;;;4947979;28;20055;-58
2023/03/30 10:40:54;;;;;;;8.20;1.00;;;13.00;99.90;;;;;;4966675;28;20499;-57
2023/03/30 10:43:26;;;;;;;6.88;1.23;;;13.10;99.90;;;;;;4982233;28;20130;-57
2023/03/30 10:45:55;;;;;;;11.25;1.70;;;13.30;99.90;;;;;;4966815;28;20046;-57
2023/03/30 10:48:36;;;;;;;10.45;1.65;;;13.20;99.90;;;;;;4966433;28;20137;-57
2023/03/30 10:51:14;;;;;;;11.88;1.30;;;13.30;99.90;;;;;;4966712;28;20512;-57
2023/03/30 10:53:49;;;;;;;5.15;0.98;;;13.20;99.90;;;;;;4967339;28;20038;-57
2023/03/30 10:56:36;;;;;;;7.28;1.30;;;13.20;99.90;;;;;;4967542;28;20665;-57
2023/03/30 10:59:14;;;;;;;8.45;1.20;;;13.30;99.90;;;;;;4966511;28;20062;-58
2023/03/30 11:01:58;;;;;;;7.28;0.90;;;13.40;99.90;;;;;;4966777;28;20047;-57
2023/03/30 11:04:35;;;;;;;10.45;1.17;;;13.60;99.90;;;;;;4967874;28;20147;-59
2023/03/30 11:07:01;;;;;;;10.50;1.23;;;13.70;99.90;;;;;;4965986;28;20477;-53
2023/03/30 11:09:41;;;;;;;14.75;1.33;;;13.60;99.90;;;;;;4966404;28;20386;-53
2023/03/30 11:12:15;;;;;;;10.52;1.23;;;13.60;99.90;;;;;;4966427;28;20381;-55
2023/03/30 11:14:50;;;;;;;14.23;1.58;;;13.40;99.90;;;;;;4966972;28;20092;-53
2023/03/30 11:17:25;;;;;;;9.90;0.90;;;13.50;99.90;;;;;;4966929;28;20130;-54
2023/03/30 11:19:55;;;;;;;12.20;1.23;;;13.50;99.90;;;;;;4966213;28;20054;-53
2023/03/30 11:22:21;;;;;;;12.00;2.03;;;;;;;;;;4948130;28;20129;-56
2023/03/30 11:24:49;;;;;;;10.73;1.45;;;13.60;99.90;;;;;;4979789;28;20460;-56
2023/03/30 11:27:39;;;;;;;10.05;1.05;;;13.60;99.90;;;;;;4965077;28;20045;-52
2023/03/30 11:30:15;;;;;;;8.02;1.17;;;13.60;99.90;;;;;;4964355;28;20086;-53
2023/03/30 11:32:55;;;;;;;12.80;1.33;;;13.70;99.90;;;;;;4962728;28;20783;-59
2023/03/30 11:35:35;;;;;;;10.27;1.10;;;13.90;99.90;;;;;;4963358;28;20039;-47
2023/03/30 11:38:13;;;;;;;11.50;1.13;;;14.10;99.90;;;;;;4946687;28;20061;-56
2023/03/30 11:40:50;;;;;;;8.65;2.00;;;14.20;99.90;;;;;;4964122;28;20503;-47
2023/03/30 11:43:18;;;;;;;8.35;1.58;;;14.50;99.90;;;;;;4946003;28;20101;-50
2023/03/30 11:46:07;;;;;;;10.57;1.58;;;14.80;99.90;;;;;;4961050;28;20061;-55
2023/03/30 11:48:47;;;;;;;12.77;1.65;;;15.20;99.90;;;;;;4961406;28;20086;-55
2023/03/30 11:51:20;;;;;;;13.60;1.33;;;15.30;99.90;;;;;;4961877;28;20469;-49
2023/03/30 11:54:07;;;;;;;11.65;1.35;;;15.20;99.90;;;;;;4966304;28;20144;-53
2023/03/30 11:56:48;;;;;;;13.75;3.20;;;15.20;99.90;;;;;;4963739;28;20049;-55
2023/03/30 11:59:17;;;;;;;11.88;1.10;;;15.30;99.90;;;;;;4979046;28;20050;-55
2023/03/30 12:02:19;;;;;;;12.45;1.40;;;15.30;99.90;;;;;;4980692;28;20066;-47
2023/03/30 12:05:08;;;;;;;14.98;2.20;;;15.20;99.90;;;;;;4962949;28;20052;-55
2023/03/30 12:07:52;;;;;;;12.75;2.03;;;15.20;99.90;;;;;;4963852;28;20055;-59
2023/03/30 12:10:29;;;;;;;16.42;1.20;;;15.40;99.90;;;;;;4963850;28;20830;-58
2023/03/30 12:12:55;;;;;;;11.20;1.48;;;15.30;99.90;;;;;;4966018;28;20053;-58
2023/03/30 12:15:54;;;;;;;13.70;1.65;;;15.10;99.90;;;;;;4965996;28;20042;-58
2023/03/30 12:18:20;;;;;;;13.13;1.60;;;15.10;99.90;;;;;;4965134;28;20126;-55
2023/03/30 12:21:13;;;;;;;13.35;1.50;;;14.90;99.90;;;;;;4965281;28;20185;-54
2023/03/30 12:24:16;;;;;;;12.63;1.63;;;14.90;99.90;;;;;;4981061;28;20043;-51
2023/03/30 12:26:42;;;;;;;8.02;1.00;;;15.10;99.90;;;;;;4966687;28;20047;-54
2023/03/30 12:29:16;;;;;;;16.60;2.08;;;15.10;99.90;;;;;;4965683;28;20728;-59
2023/03/30 12:32:01;;;;;;;10.68;1.98;;;15.20;99.90;;;;;;4965452;28;20668;-59
2023/03/30 12:34:40;;;;;;;16.50;2.13;;;15.10;99.90;;;;;;4966371;28;20082;-58
2023/03/30 12:37:20;;;;;;;11.15;1.60;;;15.30;99.90;;;;;;4968922;28;20043;-52
2023/03/30 12:39:53;;;;;;;10.57;0.98;;;15.30;99.90;;;;;;4948362;28;20206;-49
2023/03/30 12:42:33;;;;;;;9.95;1.23;;;15.00;99.90;;;;;;4968204;28;20041;-54
2023/03/30 12:45:08;;;;;;;12.30;1.38;;;14.80;99.90;;;;;;4968048;28;20039;-55
2023/03/30 12:47:52;;;;;;;12.50;1.83;;;14.90;99.90;;;;;;4968299;28;20877;-50
2023/03/30 12:50:40;;;;;;;12.80;1.50;;;15.00;99.90;;;;;;4968169;28;20047;-54
2023/03/30 12:53:24;;;;;;;5.57;1.13;;;15.00;99.90;;;;;;4970056;28;20083;-57
2023/03/30 12:56:10;;;;;;;15.07;2.25;;;15.20;99.90;;;;;;4969960;28;20043;-56
2023/03/30 12:58:58;;;;;;;12.52;1.58;;;15.30;99.90;;;;;;4968933;28;20065;-51
2023/03/30 13:01:42;;;;;;;11.18;1.50;;;15.40;99.90;;;;;;4970508;28;20071;-57
2023/03/30 13:04:12;;;;;;;14.75;1.63;;;15.40;99.90;;;;;;4969236;28;20047;-51